Time;durP1;ratioP1;P1;durP2;ratioP2;P2;SDS_P1;SDS_P2;PMS_P1;PMS_P2;Temp;Humidity;BMP_temperature;BMP_pressure;BME280_temperature;BME280_humidity;BME280_pressure;Samples;Min_cycle;Max_cycle;Signal;HPM_P1;HPM_P2
2021/06/12 00:03:13;;;;;;;6.13;5.53;;;;;;;15.18;83.98;96493.38;5200746;56;20123;-76
2021/06/12 00:08:15;;;;;;;6.20;5.60;;;;;;;15.08;84.34;96499.09;5201740;57;20141;-76
2021/06/12 00:13:17;;;;;;;6.55;5.15;;;;;;;15.21;83.41;96495.19;5201086;56;20114;-76
2021/06/12 00:18:20;;;;;;;6.57;5.45;;;;;;;15.18;83.07;96496.91;5200850;57;20110;-76
2021/06/12 00:23:22;;;;;;;7.10;6.00;;;;;;;15.08;83.44;96478.84;5200542;56;20140;-76
2021/06/12 00:28:25;;;;;;;7.05;6.28;;;;;;;15.06;83.91;96486.94;5200791;57;20713;-76
2021/06/12 00:33:27;;;;;;;6.38;5.78;;;;;;;15.15;83.67;96492.34;5200530;56;20140;-76
2021/06/12 00:38:29;;;;;;;7.45;5.75;;;;;;;15.10;83.72;96484.69;5200942;57;20141;-76
2021/06/12 00:43:32;;;;;;;5.53;5.03;;;;;;;15.18;83.80;96491.34;5200251;56;20158;-76
2021/06/12 00:48:35;;;;;;;5.93;5.43;;;;;;;15.32;83.05;96490.50;5200575;57;20596;-76
2021/06/12 00:53:41;;;;;;;6.18;5.57;;;;;;;15.37;82.87;96492.59;5200249;56;20115;-76
2021/06/12 00:58:45;;;;;;;5.63;5.10;;;;;;;15.23;83.29;96489.88;5200610;57;20123;-76
2021/06/12 01:03:48;;;;;;;7.93;5.57;;;;;;;15.18;83.60;96480.22;5199899;56;20132;-76
2021/06/12 01:08:50;;;;;;;6.40;5.80;;;;;;;15.18;83.69;96490.59;5200189;57;20114;-76
2021/06/12 01:14:05;;;;;;;7.63;5.72;;;;;;;15.25;82.94;96488.16;5201125;56;20593;-76
2021/06/12 01:19:26;;;;;;;6.68;5.97;;;;;;;15.51;81.86;96493.78;5195948;57;20213;-76
2021/06/12 01:24:51;;;;;;;5.70;5.15;;;;;;;15.59;81.57;96481.72;5206084;56;20128;-76
2021/06/12 01:30:00;;;;;;;6.07;4.53;;;;;;;15.70;81.17;96484.59;5203668;57;20123;-76
2021/06/12 01:35:08;;;;;;;6.22;4.93;;;;;;;15.73;80.71;96494.78;5203599;56;20137;-76
2021/06/12 01:40:11;;;;;;;5.72;5.10;;;;;;;15.68;81.50;96473.19;5203656;57;20227;-76
2021/06/12 01:45:14;;;;;;;5.63;5.05;;;;;;;15.61;81.99;96475.66;5202803;56;20618;-76
2021/06/12 01:50:18;;;;;;;5.22;4.72;;;;;;;15.56;82.03;96470.78;5203287;57;20614;-76
2021/06/12 01:55:24;;;;;;;6.65;4.53;;;;;;;15.59;81.57;96475.38;5202698;56;20696;-76
2021/06/12 02:00:28;;;;;;;4.85;4.22;;;;;;;15.63;81.59;96478.69;5202925;57;20145;-76
2021/06/12 02:05:33;;;;;;;5.15;4.43;;;;;;;15.64;81.72;96467.09;5202477;56;20128;-76
2021/06/12 02:10:35;;;;;;;4.88;4.47;;;;;;;15.51;82.13;96463.91;5202722;57;20123;-76
2021/06/12 02:15:39;;;;;;;4.75;4.20;;;;;;;15.47;82.01;96474.50;5202484;56;20115;-76
2021/06/12 02:20:42;;;;;;;4.22;3.85;;;;;;;15.48;82.00;96462.09;5202705;57;20598;-76
2021/06/12 02:25:48;;;;;;;6.55;4.57;;;;;;;15.45;82.19;96470.66;5201950;56;20127;-76
2021/06/12 02:30:57;;;;;;;4.93;4.43;;;;;;;15.33;82.60;96466.22;5193879;57;20128;-76
2021/06/12 02:36:00;;;;;;;4.97;4.57;;;;;;;15.20;82.84;96449.88;5202570;56;20119;-76
2021/06/12 02:41:03;;;;;;;5.85;4.25;;;;;;;15.25;82.99;96465.09;5202264;57;20656;-76
2021/06/12 02:46:11;;;;;;;4.13;3.78;;;;;;;15.30;82.72;96456.81;5201815;56;20597;-76
2021/06/12 02:51:14;;;;;;;4.47;4.07;;;;;;;15.22;82.94;96458.50;5202193;57;20127;-76
2021/06/12 02:56:19;;;;;;;5.07;3.95;;;;;;;15.05;83.62;96458.31;5202076;56;20589;-76
2021/06/12 03:01:23;;;;;;;6.32;4.30;;;;;;;14.93;83.88;96465.00;5202107;56;20142;-76
2021/06/12 03:06:27;;;;;;;5.18;4.68;;;;;;;14.81;84.14;96468.88;5202395;57;20619;-76
2021/06/12 03:11:33;;;;;;;5.53;4.30;;;;;;;14.78;84.61;96460.75;5202444;56;20133;-76
2021/06/12 03:16:38;;;;;;;4.68;4.28;;;;;;;14.77;84.30;96473.91;5202633;57;20114;-76
2021/06/12 03:21:41;;;;;;;4.78;4.35;;;;;;;14.74;84.38;96465.78;5208152;56;20118;-75
2021/06/12 03:26:46;;;;;;;5.65;4.90;;;;;;;14.72;84.48;96469.03;5208012;57;20774;-76
2021/06/12 03:31:48;;;;;;;4.75;4.35;;;;;;;14.74;84.53;96471.34;5201573;56;20132;-76
2021/06/12 03:36:51;;;;;;;5.40;4.47;;;;;;;14.79;83.78;96476.97;5200924;57;20276;-76
2021/06/12 03:41:54;;;;;;;5.07;4.43;;;;;;;14.88;83.74;96484.44;5201142;56;20687;-76
2021/06/12 03:46:58;;;;;;;5.13;4.63;;;;;;;14.93;83.95;96486.50;5201666;57;20137;-76
2021/06/12 03:52:00;;;;;;;4.82;4.35;;;;;;;15.22;82.57;96486.34;5201206;56;20576;-76
2021/06/12 03:57:05;;;;;;;4.68;4.28;;;;;;;15.21;82.97;96478.47;5201537;57;20132;-76
2021/06/12 04:02:07;;;;;;;4.32;3.92;;;;;;;15.34;82.68;96488.00;5202057;56;20115;-76
2021/06/12 04:07:09;;;;;;;4.78;4.25;;;;;;;15.43;81.93;96482.28;5201688;57;20141;-76
2021/06/12 04:12:13;;;;;;;4.75;4.25;;;;;;;15.56;80.81;96493.06;5192346;56;20575;-76
2021/06/12 04:17:16;;;;;;;5.75;3.97;;;;;;;15.54;81.00;96495.56;5201192;57;20127;-77
2021/06/12 04:22:18;;;;;;;4.80;3.95;;;;;;;15.68;80.88;96489.91;5200850;56;20167;-75
2021/06/12 04:27:21;;;;;;;6.90;4.88;;;;;;;15.83;80.60;96487.00;5192272;57;20123;-76
2021/06/12 04:32:23;;;;;;;5.70;4.50;;;;;;;16.13;80.35;96493.84;5200849;56;20651;-76
2021/06/12 04:37:26;;;;;;;4.35;3.97;;;;;;;16.39;78.87;96491.78;5200857;57;20588;-76
2021/06/12 04:42:28;;;;;;;4.88;4.38;;;;;;;16.61;78.56;96496.00;5200222;57;20136;-76
2021/06/12 04:47:31;;;;;;;4.10;3.80;;;;;;;16.95;77.54;96506.84;5200668;57;20131;-76
2021/06/12 04:52:33;;;;;;;3.75;3.45;;;;;;;17.18;76.58;96488.19;5200406;56;20544;-76
2021/06/12 04:57:40;;;;;;;4.38;3.97;;;;;;;17.61;74.59;96491.63;5200644;57;20127;-76
2021/06/12 05:02:42;;;;;;;4.70;3.53;;;;;;;17.76;75.03;96494.97;5200266;56;20127;-76
2021/06/12 05:07:44;;;;;;;4.30;3.85;;;;;;;18.13;73.81;96498.31;5200599;57;20137;-76
2021/06/12 05:12:47;;;;;;;4.07;3.78;;;;;;;18.19;74.04;96490.69;5200050;56;20105;-76
2021/06/12 05:17:49;;;;;;;3.95;3.65;;;;;;;18.41;72.24;96503.88;5200264;57;20133;-77
2021/06/12 05:22:52;;;;;;;3.88;3.53;;;;;;;18.60;70.87;96511.28;5200312;56;20118;-77
2021/06/12 05:27:55;;;;;;;3.50;3.20;;;;;;;18.75;70.01;96504.66;5200428;57;20115;-77
2021/06/12 05:32:58;;;;;;;3.72;3.42;;;;;;;18.70;70.55;96503.38;5199375;57;20115;-77
2021/06/12 05:38:01;;;;;;;4.43;3.35;;;;;;;18.95;69.05;96504.34;5199516;57;20600;-76
2021/06/12 05:43:04;;;;;;;3.97;3.67;;;;;;;19.22;68.37;96507.03;5199363;56;20128;-76
2021/06/12 05:48:09;;;;;;;3.92;3.53;;;;;;;19.39;68.30;96514.66;5199849;57;20216;-76
2021/06/12 05:53:11;;;;;;;4.93;3.60;;;;;;;19.36;66.93;96519.25;5199418;56;20110;-77
2021/06/12 05:58:14;;;;;;;5.03;3.15;;;;;;;19.60;67.08;96513.03;5199508;57;20132;-76
2021/06/12 06:03:16;;;;;;;3.63;3.33;;;;;;;19.73;65.24;96513.97;5201986;56;20593;-76
2021/06/12 06:08:19;;;;;;;4.10;3.80;;;;;;;19.99;64.40;96517.09;5202876;57;20131;-76
2021/06/12 06:13:21;;;;;;;3.88;3.38;;;;;;;20.18;62.07;96510.84;5202512;56;20136;-76
2021/06/12 06:18:26;;;;;;;3.78;3.53;;;;;;;20.35;62.64;96515.09;5196032;57;20158;-76
2021/06/12 06:23:29;;;;;;;3.92;3.63;;;;;;;20.51;62.52;96505.03;5208563;56;20141;-76
2021/06/12 06:28:31;;;;;;;4.18;3.88;;;;;;;20.63;60.02;96500.81;5205279;57;20127;-76
2021/06/12 06:33:34;;;;;;;4.25;3.90;;;;;;;20.88;59.94;96513.59;5193966;56;20132;-76
2021/06/12 06:38:36;;;;;;;4.13;3.72;;;;;;;21.10;59.61;96509.81;5202700;57;20171;-76
2021/06/12 06:43:39;;;;;;;4.00;3.65;;;;;;;21.52;58.92;96511.09;5202555;56;20167;-77
2021/06/12 06:48:41;;;;;;;4.25;3.53;;;;;;;21.58;58.41;96523.78;5193480;57;20123;-76
2021/06/12 06:53:43;;;;;;;3.78;3.47;;;;;;;22.06;57.34;96511.66;5202194;56;20141;-76
2021/06/12 06:58:46;;;;;;;3.78;3.47;;;;;;;22.26;58.87;96522.34;5202318;57;20119;-76
2021/06/12 07:03:48;;;;;;;3.55;3.35;;;;;;;22.51;55.28;96520.13;5202023;56;20128;-76
2021/06/12 07:08:51;;;;;;;3.65;3.35;;;;;;;22.62;56.58;96517.16;5202791;57;20127;-77
2021/06/12 07:13:53;;;;;;;4.05;3.75;;;;;;;22.30;56.03;96522.78;5202113;56;20125;-76
2021/06/12 07:18:57;;;;;;;4.05;3.75;;;;;;;22.27;56.20;96514.66;5202055;57;20123;-76
2021/06/12 07:23:59;;;;;;;4.00;3.70;;;;;;;22.42;56.96;96520.53;5201652;56;20132;-73
2021/06/12 07:29:02;;;;;;;4.30;3.90;;;;;;;22.75;57.21;96512.31;5201756;57;20167;-73
2021/06/12 07:34:11;;;;;;;4.10;3.72;;;;;;;22.64;56.96;96511.75;5201308;56;20141;-72
2021/06/12 07:39:13;;;;;;;4.20;3.90;;;;;;;23.15;55.17;96501.84;5200983;56;20136;-73
2021/06/12 07:44:15;;;;;;;4.30;4.00;;;;;;;23.24;56.02;96506.28;5211424;56;20130;-74
2021/06/12 07:49:18;;;;;;;4.10;3.70;;;;;;;23.72;54.01;96500.22;5201774;56;20110;-74
2021/06/12 07:54:20;;;;;;;4.30;3.92;;;;;;;24.93;50.90;96504.25;5191721;56;20589;-74
2021/06/12 07:59:23;;;;;;;6.35;4.20;;;;;;;25.65;48.69;96507.91;5206368;56;20136;-74
2021/06/12 08:04:25;;;;;;;4.13;3.83;;;;;;;25.80;46.50;96513.66;5201525;56;20133;-75
2021/06/12 08:09:29;;;;;;;4.22;3.83;;;;;;;25.84;46.66;96510.47;5204674;56;20118;-75
2021/06/12 08:14:31;;;;;;;3.90;3.47;;;;;;;26.99;47.17;96496.72;5199637;56;20677;-74
2021/06/12 08:19:35;;;;;;;4.22;3.83;;;;;;;28.23;42.13;96507.34;5197184;56;23071;-74
2021/06/12 08:24:38;;;;;;;3.60;3.33;;;;;;;28.51;41.12;96494.88;5196735;56;20145;-73
2021/06/12 08:29:40;;;;;;;4.00;3.38;;;;;;;28.37;41.28;96508.59;5197273;56;20683;-76
2021/06/12 08:34:42;;;;;;;6.30;3.90;;;;;;;27.12;42.89;96496.50;5199844;56;20118;-73
2021/06/12 08:39:45;;;;;;;4.57;4.18;;;;;;;26.18;45.31;96510.97;5198152;56;20140;-73
2021/06/12 08:44:48;;;;;;;4.20;3.88;;;;;;;26.35;43.88;96502.69;5185777;56;20647;-73
2021/06/12 08:49:52;;;;;;;3.88;3.58;;;;;;;27.79;42.13;96500.53;5186102;56;20127;-74
2021/06/12 08:54:54;;;;;;;4.93;4.40;;;;;;;28.79;41.60;96505.13;5195155;56;20149;-75
2021/06/12 08:59:57;;;;;;;4.47;4.07;;;;;;;27.91;41.34;96507.28;5196733;56;20674;-74
2021/06/12 09:04:59;;;;;;;5.40;4.40;;;;;;;27.99;40.12;96508.06;5195228;56;20584;-73
2021/06/12 09:10:03;;;;;;;5.53;4.90;;;;;;;27.34;41.33;96506.31;5196767;56;20123;-73
2021/06/12 09:15:10;;;;;;;4.53;4.10;;;;;;;28.06;41.39;96512.19;5198507;56;20163;-73
2021/06/12 09:20:18;;;;;;;4.88;4.47;;;;;;;28.48;40.64;96509.47;5195948;56;20123;-73
2021/06/12 09:25:40;;;;;;;;;;;;;;;28.99;39.27;96506.84;5193449;56;20122;-72
2021/06/12 09:30:43;;;;;;;6.20;3.95;;;;;;;28.00;40.16;96509.56;5188976;57;19971;-74
2021/06/12 09:35:46;;;;;;;4.28;3.97;;;;;;;28.85;39.51;96514.94;5197634;56;20210;-73
2021/06/12 09:40:49;;;;;;;6.72;4.38;;;;;;;28.91;39.71;96514.69;5203266;56;20119;-72
2021/06/12 09:45:51;;;;;;;4.30;3.90;;;;;;;29.50;38.69;96504.09;5206613;56;20141;-72
2021/06/12 09:51:11;;;;;;;4.20;3.83;;;;;;;30.04;37.32;96499.31;5205381;56;20111;-74
2021/06/12 09:56:14;;;;;;;4.15;3.85;;;;;;;28.54;37.28;96499.38;5197835;56;20132;-73
2021/06/12 10:01:19;;;;;;;4.72;3.70;;;;;;;28.94;37.08;96496.47;5191199;56;20115;-73
2021/06/12 10:06:27;;;;;;;4.72;4.32;;;;;;;27.48;40.23;96501.94;5201248;56;20132;-74
2021/06/12 10:16:12;;;;;;;5.85;4.20;;;;;;;28.01;39.01;96505.38;5358057;54;20606;-74
2021/06/12 10:21:16;;;;;;;6.05;4.28;;;;;;;28.09;38.10;96502.53;5352009;55;20116;-74
2021/06/12 10:26:21;;;;;;;4.13;3.75;;;;;;;30.02;37.59;96507.69;5360211;55;20316;-73
2021/06/12 10:31:25;;;;;;;3.92;3.63;;;;;;;29.96;36.67;96503.59;5355703;55;20104;-73
2021/06/12 10:36:32;;;;;;;5.25;4.10;;;;;;;30.00;37.91;96501.81;5357030;55;20139;-74
2021/06/12 10:41:35;;;;;;;6.00;3.47;;;;;;;29.94;36.90;96489.94;5353642;55;20134;-74
2021/06/12 10:46:45;;;;;;;5.93;3.50;;;;;;;29.64;37.25;96487.44;5352941;55;20130;-73
2021/06/12 10:51:48;;;;;;;4.60;4.20;;;;;;;29.49;36.43;96476.94;5354970;55;20222;-74
2021/06/12 10:57:03;;;;;;;3.33;3.13;;;;;;;30.86;35.54;96478.72;5344245;55;20691;-74
2021/06/12 11:02:43;;;;;;;3.03;2.83;;;;;;;31.10;35.07;96472.81;5361724;55;20116;-73
2021/06/12 11:07:46;;;;;;;4.25;3.00;;;;;;;30.70;36.43;96463.97;5362792;55;20112;-72
2021/06/12 11:12:56;;;;;;;3.40;3.20;;;;;;;26.92;41.16;96458.53;5362553;55;20661;-70
2021/06/12 11:18:23;;;;;;;3.97;3.67;;;;;;;26.88;43.20;96458.16;5357389;55;20196;-73
2021/06/12 11:23:43;;;;;;;2.90;2.70;;;;;;;28.28;37.12;96440.25;5360717;55;20657;-72
2021/06/12 11:28:48;;;;;;;4.25;2.72;;;;;;;27.36;39.82;96446.91;5365419;55;20104;-74
2021/06/12 11:34:12;;;;;;;2.95;2.70;;;;;;;28.82;37.80;96435.66;5363517;55;20186;-76
2021/06/12 11:39:15;;;;;;;2.58;2.38;;;;;;;29.29;36.78;96443.22;5347601;55;20142;-75
2021/06/12 11:44:25;;;;;;;2.50;2.33;;;;;;;27.62;39.30;96423.72;5342535;55;20112;-75
2021/06/12 11:49:27;;;;;;;3.00;2.80;;;;;;;27.71;39.29;96434.47;5339227;55;20122;-74
2021/06/12 11:54:31;;;;;;;3.28;2.92;;;;;;;28.31;41.32;96434.19;5349099;55;20122;-74
2021/06/12 11:59:35;;;;;;;2.85;2.65;;;;;;;30.46;35.23;96434.28;5348675;55;20112;-74
2021/06/12 12:04:42;;;;;;;3.10;2.90;;;;;;;30.49;35.17;96432.34;5349118;55;20117;-75
2021/06/12 12:09:52;;;;;;;3.35;2.70;;;;;;;29.44;35.27;96429.56;5347120;55;20628;-74
2021/06/12 12:14:55;;;;;;;3.05;2.80;;;;;;;27.90;37.54;96414.13;5348699;55;20108;-73
2021/06/12 12:19:59;;;;;;;4.13;3.25;;;;;;;28.36;39.88;96410.44;5348660;55;20108;-74
2021/06/12 12:25:03;;;;;;;3.47;3.10;;;;;;;27.73;37.86;96401.34;5343229;55;20725;-76
2021/06/12 12:30:08;;;;;;;4.57;2.97;;;;;;;29.14;37.02;96412.78;5344328;55;20126;-75
2021/06/12 12:35:18;;;;;;;3.45;2.90;;;;;;;30.07;34.55;96397.59;5340294;55;20255;-74
2021/06/12 12:40:22;;;;;;;3.28;2.70;;;;;;;28.04;36.97;96384.91;5338236;55;20108;-75
2021/06/12 12:45:25;;;;;;;4.07;3.00;;;;;;;26.88;39.75;96381.59;5338623;55;20648;-76
2021/06/12 12:50:28;;;;;;;5.32;4.10;;;;;;;26.47;40.85;96369.91;5340346;55;20121;-77
2021/06/12 12:55:30;;;;;;;5.30;3.78;;;;;;;27.29;38.84;96373.91;5339055;55;20125;-77
2021/06/12 13:00:35;;;;;;;3.20;2.90;;;;;;;28.08;39.35;96373.91;5338462;55;20122;-74
2021/06/12 13:05:45;;;;;;;4.20;3.47;;;;;;;28.07;38.01;96366.69;5341844;55;20113;-75
2021/06/12 13:11:14;;;;;;;3.30;3.00;;;;;;;27.33;40.02;96366.50;5391474;54;21221;-81
2021/06/12 13:16:21;;;;;;;6.68;3.08;;;;;;;28.22;40.12;96372.28;5346658;55;20636;-80
2021/06/12 13:21:23;;;;;;;4.22;3.03;;;;;;;30.55;37.77;96378.63;5347128;55;20197;-78
2021/06/12 13:26:26;;;;;;;3.10;2.90;;;;;;;30.12;37.02;96362.38;5345677;55;20108;-77
2021/06/12 13:31:28;;;;;;;4.05;3.08;;;;;;;29.26;36.70;96367.53;5336901;55;20126;-76
2021/06/12 13:36:31;;;;;;;3.42;3.13;;;;;;;30.05;35.14;96357.56;5335917;55;20571;-76
2021/06/12 13:41:33;;;;;;;3.38;3.08;;;;;;;29.66;36.01;96348.00;5331165;55;20113;-77
2021/06/12 13:46:36;;;;;;;3.50;2.45;;;;;;;29.47;33.60;96359.28;5341119;55;20099;-77
2021/06/12 13:51:38;;;;;;;3.97;3.17;;;;;;;29.02;35.46;96361.31;5334902;55;20109;-75
2021/06/12 13:56:44;;;;;;;3.25;2.90;;;;;;;27.67;38.63;96357.47;5333090;55;20242;-77
2021/06/12 14:01:46;;;;;;;3.58;3.28;;;;;;;27.00;39.65;96357.16;5330929;55;20114;-77
2021/06/12 14:06:48;;;;;;;3.40;3.20;;;;;;;26.89;40.66;96360.41;5334863;55;20222;-76
2021/06/12 14:11:51;;;;;;;3.53;3.33;;;;;;;26.30;42.42;96362.72;5336310;55;20580;-77
2021/06/12 14:16:54;;;;;;;6.20;3.55;;;;;;;26.24;42.87;96361.41;5333947;55;20131;-75
2021/06/12 14:21:56;;;;;;;4.10;3.80;;;;;;;28.37;42.11;96357.94;5324366;55;20122;-75
2021/06/12 14:26:59;;;;;;;3.35;3.15;;;;;;;29.52;38.20;96356.16;5322635;55;20114;-75
2021/06/12 14:32:03;;;;;;;3.42;3.22;;;;;;;27.77;39.94;96349.84;5323916;55;20202;-77
2021/06/12 14:37:06;;;;;;;3.33;3.13;;;;;;;27.29;41.68;96346.28;5332261;55;20118;-75
2021/06/12 14:42:14;;;;;;;3.88;3.10;;;;;;;28.82;40.47;96345.41;5318794;55;20100;-76
2021/06/12 14:47:16;;;;;;;4.55;3.60;;;;;;;28.07;39.29;96331.84;5328660;55;20118;-78
2021/06/12 14:52:21;;;;;;;3.30;3.10;;;;;;;27.17;42.16;96333.84;5324699;55;20113;-76
2021/06/12 14:57:25;;;;;;;4.80;3.40;;;;;;;27.52;42.20;96334.84;5319171;55;20164;-76
2021/06/12 15:02:27;;;;;;;3.55;3.35;;;;;;;28.11;41.19;96324.41;5307885;55;20680;-76
2021/06/12 15:07:30;;;;;;;3.92;3.63;;;;;;;27.64;42.22;96316.78;5318547;55;20140;-76
2021/06/12 15:12:32;;;;;;;4.43;4.00;;;;;;;26.49;45.32;96317.00;5318686;55;20131;-76
2021/06/12 15:17:35;;;;;;;4.53;4.13;;;;;;;25.87;45.59;96319.66;5328001;55;20299;-75
2021/06/12 15:22:38;;;;;;;4.82;4.38;;;;;;;25.63;46.87;96312.44;5329793;55;20100;-77
2021/06/12 15:27:40;;;;;;;4.22;3.80;;;;;;;25.63;46.59;96316.03;5327612;55;20127;-76
2021/06/12 15:32:43;;;;;;;4.72;4.30;;;;;;;25.24;48.25;96307.97;5326783;55;20122;-75
2021/06/12 15:37:45;;;;;;;9.20;4.82;;;;;;;24.93;49.97;96309.19;5327569;55;20131;-76
2021/06/12 15:42:48;;;;;;;7.63;4.43;;;;;;;24.32;54.16;96335.53;5327011;55;20679;-78
2021/06/12 15:47:51;;;;;;;6.70;6.10;;;;;;;22.25;69.94;96368.81;5327264;55;20131;-76
2021/06/12 15:52:53;;;;;;;11.07;7.82;;;;;;;21.36;75.37;96375.06;5320256;55;20227;-74
2021/06/12 15:57:56;;;;;;;9.70;7.68;;;;;;;21.10;76.48;96358.81;5325646;55;20117;-74
2021/06/12 16:02:59;;;;;;;9.40;7.82;;;;;;;21.89;74.75;96345.88;5326666;55;20131;-78
2021/06/12 16:08:02;;;;;;;7.60;6.68;;;;;;;22.65;70.49;96341.44;5321397;55;20179;-79
2021/06/12 16:13:04;;;;;;;7.45;6.75;;;;;;;23.53;68.96;96338.78;5320733;55;20127;-78
2021/06/12 16:18:07;;;;;;;8.73;7.20;;;;;;;23.64;67.47;96324.41;5326773;55;20140;-79
2021/06/12 16:23:09;;;;;;;7.43;6.68;;;;;;;24.12;67.00;96325.78;5322890;55;20096;-79
2021/06/12 16:28:12;;;;;;;8.10;6.80;;;;;;;23.94;66.79;96324.69;5326361;55;20131;-77
2021/06/12 16:33:14;;;;;;;7.40;6.22;;;;;;;24.17;66.90;96322.84;5328877;55;20653;-78
2021/06/12 16:38:16;;;;;;;7.80;7.07;;;;;;;24.01;68.66;96318.34;5350366;55;20332;-79
2021/06/12 16:43:19;;;;;;;10.98;7.88;;;;;;;23.81;70.62;96333.25;5344137;55;20122;-78
2021/06/12 16:48:21;;;;;;;13.10;7.78;;;;;;;24.08;70.10;96323.34;5328268;55;20127;-79
2021/06/12 16:53:24;;;;;;;9.18;7.47;;;;;;;24.20;69.85;96324.53;5320970;55;20677;-77
2021/06/12 17:03:48;;;;;;;7.90;6.95;;;;;;;24.04;67.90;96342.63;5317064;55;20123;-78
2021/06/12 17:08:50;;;;;;;8.10;7.30;;;;;;;24.15;68.67;96350.84;5322218;55;20131;-77
2021/06/12 17:13:53;;;;;;;8.73;6.25;;;;;;;24.85;64.07;96354.38;5307790;55;20596;-76
2021/06/12 17:18:55;;;;;;;6.93;6.32;;;;;;;24.28;64.81;96352.09;5302648;55;20131;-76
2021/06/12 17:23:59;;;;;;;7.95;6.78;;;;;;;24.14;67.56;96363.47;5318551;55;20148;-77
2021/06/12 17:29:04;;;;;;;13.30;10.07;;;;;;;24.68;63.28;96368.19;5320766;55;20123;-78
2021/06/12 17:34:06;;;;;;;5.47;4.70;;;;;;;24.44;60.11;96370.66;5305606;55;20114;-76
2021/06/12 17:39:09;;;;;;;4.40;4.03;;;;;;;25.40;59.00;96363.28;5305709;55;20102;-76
2021/06/12 17:44:11;;;;;;;4.97;2.85;;;;;;;25.41;53.60;96378.97;5305399;55;20118;-76
2021/06/12 17:49:14;;;;;;;2.58;1.95;;;;;;;25.68;50.75;96367.34;5308190;55;20127;-76
2021/06/12 17:54:16;;;;;;;3.60;1.88;;;;;;;25.09;51.25;96375.78;5327055;55;20644;-77
2021/06/12 17:59:18;;;;;;;4.18;1.80;;;;;;;24.84;50.37;96375.47;5330036;55;20126;-77
2021/06/12 18:04:21;;;;;;;4.20;1.70;;;;;;;24.71;50.27;96383.28;5328836;55;20126;-76
2021/06/12 18:09:23;;;;;;;1.40;1.33;;;;;;;24.50;48.64;96391.03;5329947;55;20465;-77
2021/06/12 18:14:26;;;;;;;3.05;1.58;;;;;;;24.02;48.57;96387.59;5320882;55;20644;-77
2021/06/12 18:19:28;;;;;;;1.45;1.35;;;;;;;23.54;52.58;96399.53;5316025;55;20186;-77
2021/06/12 18:24:30;;;;;;;2.17;1.60;;;;;;;23.52;50.21;96396.50;5307873;55;20114;-74
2021/06/12 18:29:33;;;;;;;2.08;1.45;;;;;;;23.52;49.33;96405.72;5320915;55;20232;-77
2021/06/12 18:34:35;;;;;;;3.13;1.58;;;;;;;23.30;49.03;96397.72;5330852;55;20131;-77
2021/06/12 18:39:38;;;;;;;1.20;1.20;;;;;;;23.25;48.63;96395.00;5329439;55;20109;-76
2021/06/12 18:44:40;;;;;;;1.30;1.30;;;;;;;23.03;49.76;96406.75;5326839;55;20122;-75
2021/06/12 18:49:42;;;;;;;1.63;1.15;;;;;;;22.93;50.80;96408.50;5326782;55;20213;-78
2021/06/12 18:54:45;;;;;;;1.67;1.50;;;;;;;22.56;51.76;96412.25;5327539;55;20109;-79
2021/06/12 18:59:47;;;;;;;1.55;1.23;;;;;;;22.38;52.24;96413.09;5330229;55;20675;-78
2021/06/12 19:04:50;;;;;;;1.88;1.35;;;;;;;22.32;52.62;96420.91;5327820;55;20113;-78
2021/06/12 19:09:52;;;;;;;1.50;1.40;;;;;;;22.29;52.19;96431.19;5329131;55;20122;-76
2021/06/12 19:14:55;;;;;;;1.30;1.20;;;;;;;22.07;53.63;96431.56;5328571;55;20139;-78
2021/06/12 19:19:57;;;;;;;1.45;1.35;;;;;;;22.07;53.08;96448.44;5329527;55;20135;-78
2021/06/12 19:25:00;;;;;;;1.27;1.27;;;;;;;22.08;52.85;96447.91;5329153;55;20126;-78
2021/06/12 19:30:05;;;;;;;1.15;1.15;;;;;;;22.05;53.74;96459.44;5329620;55;20135;-77
2021/06/12 19:35:55;;;;;;;4.28;1.20;;;;;;;22.18;53.47;96473.59;5316687;55;20679;-76
2021/06/12 19:40:34;;;;;;;1.67;1.50;;;;;;;22.18;53.49;96478.47;5325190;55;20109;-77
2021/06/12 19:45:37;;;;;;;1.40;1.40;;;;;;;22.09;53.59;96486.00;5328988;55;20105;-80
2021/06/12 19:50:40;;;;;;;1.48;1.48;;;;;;;21.95;54.34;96512.56;5332476;55;20110;-78
2021/06/12 19:55:42;;;;;;;1.67;1.58;;;;;;;21.64;56.97;96520.91;5326071;55;20114;-80
2021/06/12 20:00:50;;;;;;;2.13;1.73;;;;;;;21.31;59.54;96553.00;5322612;55;20108;-79
2021/06/12 20:05:52;;;;;;;1.83;1.73;;;;;;;21.06;59.87;96555.06;5326313;55;20122;-78
2021/06/12 20:10:55;;;;;;;2.10;2.00;;;;;;;20.73;61.05;96577.81;5310330;55;20141;-78
2021/06/12 20:15:58;;;;;;;2.78;1.90;;;;;;;20.51;61.54;96575.94;5323805;55;20315;-78
2021/06/12 20:21:01;;;;;;;4.03;2.33;;;;;;;20.38;62.36;96583.44;5332249;55;20118;-79
2021/06/12 20:26:03;;;;;;;4.45;2.17;;;;;;;20.28;62.48;96590.69;5335314;55;20683;-79
2021/06/12 20:31:06;;;;;;;2.28;2.17;;;;;;;20.15;63.28;96612.94;5314125;55;20137;-78
2021/06/12 20:36:08;;;;;;;2.63;2.20;;;;;;;19.98;64.01;96605.38;5318153;55;20127;-77
2021/06/12 20:41:11;;;;;;;3.05;2.60;;;;;;;19.89;64.56;96611.28;5327390;55;20109;-78
2021/06/12 20:46:13;;;;;;;2.35;2.25;;;;;;;19.76;65.12;96616.69;5320328;55;20582;-78
2021/06/12 20:51:16;;;;;;;4.50;2.30;;;;;;;19.63;65.24;96630.50;5323743;55;20127;-78
2021/06/12 20:56:18;;;;;;;2.40;2.30;;;;;;;19.48;65.88;96624.44;5319764;55;20144;-79
2021/06/12 21:01:21;;;;;;;3.10;2.10;;;;;;;19.48;65.56;96646.09;5322836;55;20149;-75
2021/06/12 21:06:23;;;;;;;2.78;2.58;;;;;;;19.35;66.14;96660.66;5323263;55;20207;-78
2021/06/12 21:11:25;;;;;;;2.60;2.40;;;;;;;19.20;66.62;96669.28;5309719;55;20139;-78
2021/06/12 21:16:28;;;;;;;4.25;2.47;;;;;;;19.12;66.80;96675.94;5312309;55;20123;-78
2021/06/12 21:21:30;;;;;;;2.53;2.33;;;;;;;18.97;66.62;96672.63;5321923;55;20223;-77
2021/06/12 21:26:33;;;;;;;2.67;2.50;;;;;;;18.97;66.90;96686.63;5324848;55;20113;-78
2021/06/12 21:31:35;;;;;;;3.08;2.88;;;;;;;18.91;66.33;96699.84;5324305;55;20114;-78
2021/06/12 21:36:38;;;;;;;2.50;2.40;;;;;;;18.97;65.57;96698.63;5332888;55;20122;-80
2021/06/12 21:41:40;;;;;;;2.47;2.22;;;;;;;19.15;63.98;96706.50;5336024;55;20117;-77
2021/06/12 21:46:43;;;;;;;2.95;2.38;;;;;;;19.19;63.11;96703.44;5336368;55;20109;-78
2021/06/12 21:51:46;;;;;;;3.00;2.70;;;;;;;19.19;62.82;96706.25;5348793;55;20132;-78
2021/06/12 21:56:48;;;;;;;2.85;2.30;;;;;;;19.27;62.56;96710.81;5342094;55;20581;-79
2021/06/12 22:01:51;;;;;;;2.72;2.38;;;;;;;19.35;63.28;96727.91;5333606;55;20649;-79
2021/06/12 22:06:53;;;;;;;2.97;2.50;;;;;;;19.17;64.01;96717.19;5332681;55;20122;-78
2021/06/12 22:11:56;;;;;;;2.42;2.28;;;;;;;19.26;62.78;96728.16;5332773;55;20140;-76
2021/06/12 22:16:58;;;;;;;3.00;2.80;;;;;;;19.17;62.41;96717.19;5322584;55;20113;-79
2021/06/12 22:22:01;;;;;;;2.65;2.45;;;;;;;19.21;63.20;96734.50;5330892;55;20162;-78
2021/06/12 22:27:04;;;;;;;2.67;2.40;;;;;;;19.17;62.51;96736.81;5331818;55;20113;-79
2021/06/12 22:32:06;;;;;;;2.50;2.40;;;;;;;19.12;62.77;96743.16;5333291;55;20136;-77
2021/06/12 22:37:09;;;;;;;2.97;2.75;;;;;;;19.10;63.70;96749.28;5336836;55;20193;-78
2021/06/12 22:42:11;;;;;;;2.90;2.70;;;;;;;19.01;63.63;96754.38;5330859;55;20122;-79
2021/06/12 22:47:13;;;;;;;3.78;2.53;;;;;;;18.94;63.50;96749.25;5331034;55;20117;-79
2021/06/12 22:52:16;;;;;;;3.03;2.53;;;;;;;18.88;63.37;96740.88;5321774;55;20140;-78
2021/06/12 22:57:18;;;;;;;2.95;2.72;;;;;;;18.91;63.99;96755.88;5330958;55;20122;-78
2021/06/12 23:02:21;;;;;;;3.03;2.63;;;;;;;18.85;63.49;96755.88;5331153;55;20113;-79
2021/06/12 23:07:23;;;;;;;3.95;2.75;;;;;;;18.88;64.27;96757.69;5330655;55;20113;-78
2021/06/12 23:12:25;;;;;;;3.35;3.05;;;;;;;18.55;66.27;96780.75;5330361;55;20122;-78
2021/06/12 23:17:28;;;;;;;3.42;3.13;;;;;;;18.36;66.91;96776.06;5332371;55;20118;-79
2021/06/12 23:22:30;;;;;;;3.22;2.92;;;;;;;18.27;67.16;96770.69;5330615;55;20126;-79
2021/06/12 23:27:33;;;;;;;3.28;3.00;;;;;;;18.11;67.54;96780.56;5331127;55;20117;-76
2021/06/12 23:32:36;;;;;;;3.72;2.75;;;;;;;17.93;68.25;96778.16;5331458;55;20123;-80
2021/06/12 23:37:40;;;;;;;3.08;2.88;;;;;;;17.83;68.37;96779.63;5331564;55;20140;-80
2021/06/12 23:42:42;;;;;;;4.95;3.33;;;;;;;17.96;67.85;96776.41;5332039;55;20578;-79
2021/06/12 23:47:45;;;;;;;3.03;2.83;;;;;;;17.91;68.92;96778.66;5330854;55;20122;-78
2021/06/12 23:52:48;;;;;;;4.55;3.42;;;;;;;17.78;68.56;96788.72;5332230;55;20127;-79
2021/06/12 23:57:50;;;;;;;3.90;3.50;;;;;;;17.89;67.81;96792.38;5322910;55;20109;-80
